sensor_id;sensor_type;location;lat;lon;timestamp;P1;durP1;ratioP1;P2;durP2;ratioP2
52043;SDS011;38053;53.100;6.078;2022-12-07T00:02:18;7.03;;;1.52;;
52043;SDS011;38053;53.100;6.078;2022-12-07T00:04:43;18.40;;;3.60;;
52043;SDS011;38053;53.100;6.078;2022-12-07T00:07:09;15.75;;;2.00;;
52043;SDS011;38053;53.100;6.078;2022-12-07T00:09:35;12.02;;;2.83;;
52043;SDS011;38053;53.100;6.078;2022-12-07T00:12:00;21.92;;;4.18;;
52043;SDS011;38053;53.100;6.078;2022-12-07T00:14:26;13.57;;;3.53;;
52043;SDS011;38053;53.100;6.078;2022-12-07T00:16:52;9.30;;;2.22;;
52043;SDS011;38053;53.100;6.078;2022-12-07T00:19:17;15.07;;;1.67;;
52043;SDS011;38053;53.100;6.078;2022-12-07T00:21:44;9.18;;;1.92;;
52043;SDS011;38053;53.100;6.078;2022-12-07T00:24:10;9.23;;;1.63;;
52043;SDS011;38053;53.100;6.078;2022-12-07T00:26:37;15.07;;;1.77;;
52043;SDS011;38053;53.100;6.078;2022-12-07T00:29:05;11.38;;;1.42;;
52043;SDS011;38053;53.100;6.078;2022-12-07T00:31:40;9.88;;;1.52;;
52043;SDS011;38053;53.100;6.078;2022-12-07T00:34:06;13.75;;;1.40;;
52043;SDS011;38053;53.100;6.078;2022-12-07T00:36:32;9.88;;;2.25;;
52043;SDS011;38053;53.100;6.078;2022-12-07T00:38:58;13.30;;;1.67;;
52043;SDS011;38053;53.100;6.078;2022-12-07T00:41:25;9.38;;;1.98;;
52043;SDS011;38053;53.100;6.078;2022-12-07T00:43:51;13.35;;;2.63;;
52043;SDS011;38053;53.100;6.078;2022-12-07T00:46:18;6.40;;;1.50;;
52043;SDS011;38053;53.100;6.078;2022-12-07T00:48:44;6.00;;;0.95;;
52043;SDS011;38053;53.100;6.078;2022-12-07T00:51:12;8.95;;;1.77;;
52043;SDS011;38053;53.100;6.078;2022-12-07T00:53:39;10.98;;;1.50;;
52043;SDS011;38053;53.100;6.078;2022-12-07T00:56:07;12.35;;;2.10;;
52043;SDS011;38053;53.100;6.078;2022-12-07T00:58:40;10.98;;;1.88;;
52043;SDS011;38053;53.100;6.078;2022-12-07T01:01:06;15.45;;;2.65;;
52043;SDS011;38053;53.100;6.078;2022-12-07T01:03:33;4.82;;;1.40;;
52043;SDS011;38053;53.100;6.078;2022-12-07T01:05:58;11.63;;;1.23;;
52043;SDS011;38053;53.100;6.078;2022-12-07T01:08:25;21.15;;;4.55;;
52043;SDS011;38053;53.100;6.078;2022-12-07T01:11:05;9.43;;;1.60;;
52043;SDS011;38053;53.100;6.078;2022-12-07T01:13:33;12.35;;;2.10;;
52043;SDS011;38053;53.100;6.078;2022-12-07T01:16:00;11.52;;;1.92;;
52043;SDS011;38053;53.100;6.078;2022-12-07T01:18:29;5.10;;;1.30;;
52043;SDS011;38053;53.100;6.078;2022-12-07T01:21:03;9.75;;;1.55;;
52043;SDS011;38053;53.100;6.078;2022-12-07T01:23:29;15.25;;;3.17;;
52043;SDS011;38053;53.100;6.078;2022-12-07T01:26:00;18.27;;;2.75;;
52043;SDS011;38053;53.100;6.078;2022-12-07T01:28:27;10.85;;;1.65;;
52043;SDS011;38053;53.100;6.078;2022-12-07T01:30:57;11.18;;;1.20;;
52043;SDS011;38053;53.100;6.078;2022-12-07T01:33:22;12.25;;;1.65;;
52043;SDS011;38053;53.100;6.078;2022-12-07T01:35:48;13.82;;;1.52;;
52043;SDS011;38053;53.100;6.078;2022-12-07T01:38:14;12.43;;;1.77;;
52043;SDS011;38053;53.100;6.078;2022-12-07T01:40:39;18.40;;;2.05;;
52043;SDS011;38053;53.100;6.078;2022-12-07T01:43:13;11.30;;;1.75;;
52043;SDS011;38053;53.100;6.078;2022-12-07T01:45:43;27.85;;;2.10;;
52043;SDS011;38053;53.100;6.078;2022-12-07T01:48:09;14.55;;;1.70;;
52043;SDS011;38053;53.100;6.078;2022-12-07T01:50:38;14.52;;;1.80;;
52043;SDS011;38053;53.100;6.078;2022-12-07T01:53:05;18.25;;;2.53;;
52043;SDS011;38053;53.100;6.078;2022-12-07T01:55:34;10.15;;;1.30;;
52043;SDS011;38053;53.100;6.078;2022-12-07T01:58:05;10.95;;;1.95;;
52043;SDS011;38053;53.100;6.078;2022-12-07T02:00:31;11.82;;;2.28;;
52043;SDS011;38053;53.100;6.078;2022-12-07T02:03:04;9.00;;;1.60;;
52043;SDS011;38053;53.100;6.078;2022-12-07T02:05:40;19.55;;;1.13;;
52043;SDS011;38053;53.100;6.078;2022-12-07T02:08:07;13.63;;;1.30;;
52043;SDS011;38053;53.100;6.078;2022-12-07T02:10:34;17.63;;;2.20;;
52043;SDS011;38053;53.100;6.078;2022-12-07T02:18:21;12.40;;;2.75;;
52043;SDS011;38053;53.100;6.078;2022-12-07T02:31:33;8.10;;;1.50;;
52043;SDS011;38053;53.100;6.078;2022-12-07T02:34:07;16.45;;;3.40;;
52043;SDS011;38053;53.100;6.078;2022-12-07T02:36:40;12.82;;;3.15;;
52043;SDS011;38053;53.100;6.078;2022-12-07T02:39:15;14.90;;;1.80;;
52043;SDS011;38053;53.100;6.078;2022-12-07T02:41:55;6.82;;;1.02;;
52043;SDS011;38053;53.100;6.078;2022-12-07T02:44:27;16.73;;;2.88;;
52043;SDS011;38053;53.100;6.078;2022-12-07T02:47:03;10.55;;;1.70;;
52043;SDS011;38053;53.100;6.078;2022-12-07T02:49:34;18.27;;;1.80;;
52043;SDS011;38053;53.100;6.078;2022-12-07T02:52:01;9.30;;;1.35;;
52043;SDS011;38053;53.100;6.078;2022-12-07T02:54:27;11.63;;;1.77;;
52043;SDS011;38053;53.100;6.078;2022-12-07T03:18:49;9.35;;;1.58;;
52043;SDS011;38053;53.100;6.078;2022-12-07T03:21:32;6.65;;;1.30;;
52043;SDS011;38053;53.100;6.078;2022-12-07T03:24:03;8.85;;;1.35;;
52043;SDS011;38053;53.100;6.078;2022-12-07T03:26:38;13.90;;;3.58;;
52043;SDS011;38053;53.100;6.078;2022-12-07T03:29:08;7.90;;;1.30;;
52043;SDS011;38053;53.100;6.078;2022-12-07T03:31:47;10.95;;;1.92;;
52043;SDS011;38053;53.100;6.078;2022-12-07T03:34:28;9.20;;;1.15;;
52043;SDS011;38053;53.100;6.078;2022-12-07T03:37:03;12.02;;;1.55;;
52043;SDS011;38053;53.100;6.078;2022-12-07T03:39:37;5.63;;;1.08;;
52043;SDS011;38053;53.100;6.078;2022-12-07T03:42:04;11.43;;;1.70;;
52043;SDS011;38053;53.100;6.078;2022-12-07T03:44:32;18.25;;;1.85;;
52043;SDS011;38053;53.100;6.078;2022-12-07T03:47:11;12.75;;;3.88;;
52043;SDS011;38053;53.100;6.078;2022-12-07T03:50:06;10.07;;;1.42;;
52043;SDS011;38053;53.100;6.078;2022-12-07T03:52:45;12.35;;;1.95;;
52043;SDS011;38053;53.100;6.078;2022-12-07T03:55:31;7.70;;;1.58;;
52043;SDS011;38053;53.100;6.078;2022-12-07T03:58:05;8.45;;;1.55;;
52043;SDS011;38053;53.100;6.078;2022-12-07T04:00:34;9.75;;;1.85;;
52043;SDS011;38053;53.100;6.078;2022-12-07T04:02:59;7.75;;;1.48;;
52043;SDS011;38053;53.100;6.078;2022-12-07T04:05:25;17.38;;;2.42;;
52043;SDS011;38053;53.100;6.078;2022-12-07T04:07:51;8.82;;;1.35;;
52043;SDS011;38053;53.100;6.078;2022-12-07T04:10:17;10.32;;;1.63;;
52043;SDS011;38053;53.100;6.078;2022-12-07T04:12:43;11.85;;;1.45;;
52043;SDS011;38053;53.100;6.078;2022-12-07T04:15:09;7.72;;;1.17;;
52043;SDS011;38053;53.100;6.078;2022-12-07T04:17:35;17.08;;;1.75;;
52043;SDS011;38053;53.100;6.078;2022-12-07T04:20:01;6.05;;;1.27;;
52043;SDS011;38053;53.100;6.078;2022-12-07T04:22:27;11.80;;;1.52;;
52043;SDS011;38053;53.100;6.078;2022-12-07T04:24:52;13.32;;;1.33;;
52043;SDS011;38053;53.100;6.078;2022-12-07T04:27:18;13.90;;;1.80;;
52043;SDS011;38053;53.100;6.078;2022-12-07T04:29:44;9.55;;;1.40;;
52043;SDS011;38053;53.100;6.078;2022-12-07T04:32:09;12.70;;;2.05;;
52043;SDS011;38053;53.100;6.078;2022-12-07T04:34:35;11.90;;;2.08;;
52043;SDS011;38053;53.100;6.078;2022-12-07T04:37:01;9.77;;;1.50;;
52043;SDS011;38053;53.100;6.078;2022-12-07T04:39:30;12.70;;;1.52;;
52043;SDS011;38053;53.100;6.078;2022-12-07T04:41:57;11.82;;;1.27;;
52043;SDS011;38053;53.100;6.078;2022-12-07T04:44:24;4.72;;;1.02;;
52043;SDS011;38053;53.100;6.078;2022-12-07T04:46:51;10.70;;;1.52;;
52043;SDS011;38053;53.100;6.078;2022-12-07T04:49:17;6.70;;;1.08;;
52043;SDS011;38053;53.100;6.078;2022-12-07T04:51:43;5.80;;;1.25;;
52043;SDS011;38053;53.100;6.078;2022-12-07T04:54:10;8.02;;;1.48;;
52043;SDS011;38053;53.100;6.078;2022-12-07T04:56:36;6.68;;;1.60;;
52043;SDS011;38053;53.100;6.078;2022-12-07T04:59:02;8.35;;;1.25;;
52043;SDS011;38053;53.100;6.078;2022-12-07T05:01:28;5.97;;;1.13;;
52043;SDS011;38053;53.100;6.078;2022-12-07T05:03:54;10.20;;;2.83;;
52043;SDS011;38053;53.100;6.078;2022-12-07T05:06:20;7.18;;;1.50;;
52043;SDS011;38053;53.100;6.078;2022-12-07T05:08:45;8.57;;;1.23;;
52043;SDS011;38053;53.100;6.078;2022-12-07T05:11:12;11.75;;;2.92;;
52043;SDS011;38053;53.100;6.078;2022-12-07T05:13:57;9.70;;;1.08;;
52043;SDS011;38053;53.100;6.078;2022-12-07T05:16:23;8.18;;;1.08;;
52043;SDS011;38053;53.100;6.078;2022-12-07T05:18:48;9.32;;;1.02;;
52043;SDS011;38053;53.100;6.078;2022-12-07T05:21:14;15.18;;;1.45;;
52043;SDS011;38053;53.100;6.078;2022-12-07T05:23:40;19.00;;;1.58;;
52043;SDS011;38053;53.100;6.078;2022-12-07T05:26:05;7.40;;;1.95;;
52043;SDS011;38053;53.100;6.078;2022-12-07T05:28:31;6.15;;;1.23;;
52043;SDS011;38053;53.100;6.078;2022-12-07T05:30:56;27.42;;;4.68;;
52043;SDS011;38053;53.100;6.078;2022-12-07T05:33:22;11.32;;;1.58;;
52043;SDS011;38053;53.100;6.078;2022-12-07T05:35:48;7.53;;;1.25;;
52043;SDS011;38053;53.100;6.078;2022-12-07T05:38:13;9.38;;;1.38;;
52043;SDS011;38053;53.100;6.078;2022-12-07T05:40:39;7.15;;;1.00;;
52043;SDS011;38053;53.100;6.078;2022-12-07T05:43:05;9.45;;;1.15;;
52043;SDS011;38053;53.100;6.078;2022-12-07T05:45:31;19.60;;;2.65;;
52043;SDS011;38053;53.100;6.078;2022-12-07T05:47:56;10.63;;;1.48;;
52043;SDS011;38053;53.100;6.078;2022-12-07T05:50:22;12.55;;;1.50;;
52043;SDS011;38053;53.100;6.078;2022-12-07T05:52:47;13.32;;;2.15;;
52043;SDS011;38053;53.100;6.078;2022-12-07T05:55:13;13.32;;;2.75;;
52043;SDS011;38053;53.100;6.078;2022-12-07T05:57:39;16.02;;;1.98;;
52043;SDS011;38053;53.100;6.078;2022-12-07T06:00:05;18.45;;;2.10;;
52043;SDS011;38053;53.100;6.078;2022-12-07T06:02:31;11.32;;;1.75;;
52043;SDS011;38053;53.100;6.078;2022-12-07T06:04:56;16.60;;;1.65;;
52043;SDS011;38053;53.100;6.078;2022-12-07T06:07:22;17.98;;;2.13;;
52043;SDS011;38053;53.100;6.078;2022-12-07T06:09:48;6.35;;;1.30;;
52043;SDS011;38053;53.100;6.078;2022-12-07T06:12:13;18.35;;;2.20;;
52043;SDS011;38053;53.100;6.078;2022-12-07T06:14:58;12.38;;;1.70;;
52043;SDS011;38053;53.100;6.078;2022-12-07T06:17:23;8.23;;;1.80;;
52043;SDS011;38053;53.100;6.078;2022-12-07T06:19:49;11.90;;;1.50;;
52043;SDS011;38053;53.100;6.078;2022-12-07T06:22:15;14.07;;;2.80;;
52043;SDS011;38053;53.100;6.078;2022-12-07T06:24:41;13.32;;;2.13;;
52043;SDS011;38053;53.100;6.078;2022-12-07T06:27:09;12.43;;;1.50;;
52043;SDS011;38053;53.100;6.078;2022-12-07T06:29:35;13.75;;;1.67;;
52043;SDS011;38053;53.100;6.078;2022-12-07T06:32:00;6.38;;;1.90;;
52043;SDS011;38053;53.100;6.078;2022-12-07T06:34:26;8.15;;;1.60;;
52043;SDS011;38053;53.100;6.078;2022-12-07T06:36:52;11.63;;;1.65;;
52043;SDS011;38053;53.100;6.078;2022-12-07T06:39:26;15.65;;;3.47;;
52043;SDS011;38053;53.100;6.078;2022-12-07T06:41:52;11.75;;;1.98;;
52043;SDS011;38053;53.100;6.078;2022-12-07T06:44:19;13.43;;;1.52;;
52043;SDS011;38053;53.100;6.078;2022-12-07T06:46:45;14.75;;;2.38;;
52043;SDS011;38053;53.100;6.078;2022-12-07T06:49:10;9.30;;;2.22;;
52043;SDS011;38053;53.100;6.078;2022-12-07T06:51:36;17.90;;;1.90;;
52043;SDS011;38053;53.100;6.078;2022-12-07T06:54:06;8.68;;;1.70;;
52043;SDS011;38053;53.100;6.078;2022-12-07T06:56:36;15.75;;;1.85;;
52043;SDS011;38053;53.100;6.078;2022-12-07T06:59:02;17.30;;;2.13;;
52043;SDS011;38053;53.100;6.078;2022-12-07T07:01:28;10.80;;;1.88;;
52043;SDS011;38053;53.100;6.078;2022-12-07T07:03:54;23.20;;;2.08;;
52043;SDS011;38053;53.100;6.078;2022-12-07T07:06:19;8.32;;;1.63;;
52043;SDS011;38053;53.100;6.078;2022-12-07T07:08:45;7.20;;;1.55;;
52043;SDS011;38053;53.100;6.078;2022-12-07T07:11:11;13.65;;;1.73;;
52043;SDS011;38053;53.100;6.078;2022-12-07T07:13:37;17.48;;;3.03;;
52043;SDS011;38053;53.100;6.078;2022-12-07T07:16:03;23.02;;;2.10;;
52043;SDS011;38053;53.100;6.078;2022-12-07T07:18:29;20.55;;;2.47;;
52043;SDS011;38053;53.100;6.078;2022-12-07T07:20:54;19.35;;;3.25;;
52043;SDS011;38053;53.100;6.078;2022-12-07T07:23:21;16.73;;;2.38;;
52043;SDS011;38053;53.100;6.078;2022-12-07T07:25:47;14.30;;;4.38;;
52043;SDS011;38053;53.100;6.078;2022-12-07T07:28:13;12.10;;;1.63;;
52043;SDS011;38053;53.100;6.078;2022-12-07T07:30:39;19.33;;;3.58;;
52043;SDS011;38053;53.100;6.078;2022-12-07T07:33:05;11.05;;;2.17;;
52043;SDS011;38053;53.100;6.078;2022-12-07T07:35:32;12.60;;;1.90;;
52043;SDS011;38053;53.100;6.078;2022-12-07T07:37:58;20.65;;;2.22;;
52043;SDS011;38053;53.100;6.078;2022-12-07T07:40:24;12.48;;;2.20;;
52043;SDS011;38053;53.100;6.078;2022-12-07T07:42:51;11.43;;;2.72;;
52043;SDS011;38053;53.100;6.078;2022-12-07T07:45:19;14.13;;;4.70;;
52043;SDS011;38053;53.100;6.078;2022-12-07T07:47:46;22.90;;;2.95;;
52043;SDS011;38053;53.100;6.078;2022-12-07T07:50:12;13.70;;;2.53;;
52043;SDS011;38053;53.100;6.078;2022-12-07T07:52:38;18.95;;;2.55;;
52043;SDS011;38053;53.100;6.078;2022-12-07T07:55:04;20.42;;;3.40;;
52043;SDS011;38053;53.100;6.078;2022-12-07T07:57:30;12.02;;;2.33;;
52043;SDS011;38053;53.100;6.078;2022-12-07T07:59:56;14.73;;;2.15;;
52043;SDS011;38053;53.100;6.078;2022-12-07T08:02:21;16.33;;;3.00;;
52043;SDS011;38053;53.100;6.078;2022-12-07T08:04:48;16.70;;;4.70;;
52043;SDS011;38053;53.100;6.078;2022-12-07T08:07:14;16.55;;;2.08;;
52043;SDS011;38053;53.100;6.078;2022-12-07T08:09:40;13.73;;;2.55;;
52043;SDS011;38053;53.100;6.078;2022-12-07T08:12:06;11.25;;;2.30;;
52043;SDS011;38053;53.100;6.078;2022-12-07T08:14:32;18.60;;;2.47;;
52043;SDS011;38053;53.100;6.078;2022-12-07T08:16:59;19.42;;;4.00;;
52043;SDS011;38053;53.100;6.078;2022-12-07T08:19:25;13.30;;;2.70;;
52043;SDS011;38053;53.100;6.078;2022-12-07T08:21:50;11.38;;;2.70;;
52043;SDS011;38053;53.100;6.078;2022-12-07T08:24:16;9.45;;;2.60;;
52043;SDS011;38053;53.100;6.078;2022-12-07T08:26:42;18.30;;;2.30;;
52043;SDS011;38053;53.100;6.078;2022-12-07T08:29:08;13.20;;;2.70;;
52043;SDS011;38053;53.100;6.078;2022-12-07T08:31:34;18.85;;;3.72;;
52043;SDS011;38053;53.100;6.078;2022-12-07T08:34:00;15.73;;;2.97;;
52043;SDS011;38053;53.100;6.078;2022-12-07T08:36:25;15.77;;;4.03;;
52043;SDS011;38053;53.100;6.078;2022-12-07T08:38:51;11.23;;;2.72;;
52043;SDS011;38053;53.100;6.078;2022-12-07T08:41:17;16.25;;;3.35;;
52043;SDS011;38053;53.100;6.078;2022-12-07T08:43:43;18.52;;;2.72;;
52043;SDS011;38053;53.100;6.078;2022-12-07T08:46:10;16.70;;;3.10;;
52043;SDS011;38053;53.100;6.078;2022-12-07T08:51:16;15.73;;;2.55;;
52043;SDS011;38053;53.100;6.078;2022-12-07T08:53:42;19.23;;;2.97;;
52043;SDS011;38053;53.100;6.078;2022-12-07T08:56:09;21.15;;;2.40;;
52043;SDS011;38053;53.100;6.078;2022-12-07T08:58:34;12.35;;;2.20;;
52043;SDS011;38053;53.100;6.078;2022-12-07T09:01:02;14.25;;;1.98;;
52043;SDS011;38053;53.100;6.078;2022-12-07T09:03:29;26.65;;;3.72;;
52043;SDS011;38053;53.100;6.078;2022-12-07T09:05:55;14.32;;;2.55;;
52043;SDS011;38053;53.100;6.078;2022-12-07T09:08:21;9.90;;;2.17;;
52043;SDS011;38053;53.100;6.078;2022-12-07T09:10:51;14.43;;;2.80;;
52043;SDS011;38053;53.100;6.078;2022-12-07T09:13:16;8.68;;;2.58;;
52043;SDS011;38053;53.100;6.078;2022-12-07T09:15:42;11.10;;;2.40;;
52043;SDS011;38053;53.100;6.078;2022-12-07T09:18:08;22.90;;;4.10;;
52043;SDS011;38053;53.100;6.078;2022-12-07T09:20:33;10.13;;;2.08;;
52043;SDS011;38053;53.100;6.078;2022-12-07T09:22:59;14.45;;;2.30;;
52043;SDS011;38053;53.100;6.078;2022-12-07T09:25:25;19.67;;;2.75;;
52043;SDS011;38053;53.100;6.078;2022-12-07T09:27:55;14.27;;;2.00;;
52043;SDS011;38053;53.100;6.078;2022-12-07T09:30:22;20.83;;;2.28;;
52043;SDS011;38053;53.100;6.078;2022-12-07T09:32:47;15.50;;;2.35;;
52043;SDS011;38053;53.100;6.078;2022-12-07T09:35:13;18.38;;;3.33;;
52043;SDS011;38053;53.100;6.078;2022-12-07T09:37:38;18.50;;;2.20;;
52043;SDS011;38053;53.100;6.078;2022-12-07T09:40:04;22.45;;;3.17;;
52043;SDS011;38053;53.100;6.078;2022-12-07T09:42:35;11.45;;;2.20;;
52043;SDS011;38053;53.100;6.078;2022-12-07T09:45:05;14.32;;;2.10;;
52043;SDS011;38053;53.100;6.078;2022-12-07T09:47:37;17.70;;;3.13;;
52043;SDS011;38053;53.100;6.078;2022-12-07T09:50:07;9.95;;;2.17;;
52043;SDS011;38053;53.100;6.078;2022-12-07T09:52:39;21.25;;;5.05;;
52043;SDS011;38053;53.100;6.078;2022-12-07T09:55:13;7.95;;;1.65;;
52043;SDS011;38053;53.100;6.078;2022-12-07T09:57:59;18.55;;;2.75;;
52043;SDS011;38053;53.100;6.078;2022-12-07T10:00:25;12.63;;;2.13;;
52043;SDS011;38053;53.100;6.078;2022-12-07T10:02:57;11.27;;;1.92;;
52043;SDS011;38053;53.100;6.078;2022-12-07T10:05:26;10.57;;;1.90;;
52043;SDS011;38053;53.100;6.078;2022-12-07T10:07:59;6.38;;;2.22;;
52043;SDS011;38053;53.100;6.078;2022-12-07T10:10:26;9.50;;;1.63;;
52043;SDS011;38053;53.100;6.078;2022-12-07T10:20:45;13.68;;;2.10;;
52043;SDS011;38053;53.100;6.078;2022-12-07T10:23:15;7.03;;;1.70;;
52043;SDS011;38053;53.100;6.078;2022-12-07T10:25:43;10.68;;;1.92;;
52043;SDS011;38053;53.100;6.078;2022-12-07T10:28:13;18.77;;;1.67;;
52043;SDS011;38053;53.100;6.078;2022-12-07T10:30:46;11.77;;;2.38;;
52043;SDS011;38053;53.100;6.078;2022-12-07T10:35:58;9.88;;;1.75;;
52043;SDS011;38053;53.100;6.078;2022-12-07T10:38:25;12.88;;;1.70;;
52043;SDS011;38053;53.100;6.078;2022-12-07T10:41:02;13.93;;;1.83;;
52043;SDS011;38053;53.100;6.078;2022-12-07T10:43:29;9.30;;;1.27;;
52043;SDS011;38053;53.100;6.078;2022-12-07T10:46:07;9.30;;;1.77;;
52043;SDS011;38053;53.100;6.078;2022-12-07T10:51:26;14.70;;;1.77;;
52043;SDS011;38053;53.100;6.078;2022-12-07T10:59:47;6.28;;;1.08;;
52043;SDS011;38053;53.100;6.078;2022-12-07T11:05:27;6.50;;;1.30;;
52043;SDS011;38053;53.100;6.078;2022-12-07T11:10:55;2.65;;;0.80;;
52043;SDS011;38053;53.100;6.078;2022-12-07T11:21:57;8.90;;;1.17;;
52043;SDS011;38053;53.100;6.078;2022-12-07T11:32:43;7.00;;;1.98;;
52043;SDS011;38053;53.100;6.078;2022-12-07T11:38:07;5.05;;;1.48;;
52043;SDS011;38053;53.100;6.078;2022-12-07T11:40:49;4.82;;;1.23;;
52043;SDS011;38053;53.100;6.078;2022-12-07T11:43:23;4.60;;;1.45;;
52043;SDS011;38053;53.100;6.078;2022-12-07T11:45:59;5.20;;;1.48;;
52043;SDS011;38053;53.100;6.078;2022-12-07T11:51:33;6.25;;;2.08;;
52043;SDS011;38053;53.100;6.078;2022-12-07T11:54:03;5.03;;;1.13;;
52043;SDS011;38053;53.100;6.078;2022-12-07T11:56:37;6.53;;;1.13;;
52043;SDS011;38053;53.100;6.078;2022-12-07T12:04:13;7.25;;;1.20;;
52043;SDS011;38053;53.100;6.078;2022-12-07T12:07:00;9.82;;;2.15;;
52043;SDS011;38053;53.100;6.078;2022-12-07T12:14:40;12.10;;;2.42;;
52043;SDS011;38053;53.100;6.078;2022-12-07T12:22:45;8.38;;;1.58;;
52043;SDS011;38053;53.100;6.078;2022-12-07T12:25:27;3.80;;;0.70;;
52043;SDS011;38053;53.100;6.078;2022-12-07T12:27:57;6.88;;;1.08;;
52043;SDS011;38053;53.100;6.078;2022-12-07T12:33:01;4.40;;;1.08;;
52043;SDS011;38053;53.100;6.078;2022-12-07T12:35:45;5.78;;;1.48;;
52043;SDS011;38053;53.100;6.078;2022-12-07T12:38:24;6.28;;;1.02;;
52043;SDS011;38053;53.100;6.078;2022-12-07T12:41:10;9.25;;;1.23;;
52043;SDS011;38053;53.100;6.078;2022-12-07T12:51:57;4.55;;;1.08;;
52043;SDS011;38053;53.100;6.078;2022-12-07T12:54:26;10.25;;;1.27;;
52043;SDS011;38053;53.100;6.078;2022-12-07T12:59:29;8.48;;;1.98;;
52043;SDS011;38053;53.100;6.078;2022-12-07T13:23:14;6.72;;;1.27;;
52043;SDS011;38053;53.100;6.078;2022-12-07T13:25:51;9.35;;;1.85;;
52043;SDS011;38053;53.100;6.078;2022-12-07T13:28:40;6.60;;;1.83;;
52043;SDS011;38053;53.100;6.078;2022-12-07T13:34:02;7.25;;;1.95;;
52043;SDS011;38053;53.100;6.078;2022-12-07T13:36:31;6.65;;;1.15;;
52043;SDS011;38053;53.100;6.078;2022-12-07T13:39:17;11.65;;;1.55;;
52043;SDS011;38053;53.100;6.078;2022-12-07T13:41:44;16.48;;;2.13;;
52043;SDS011;38053;53.100;6.078;2022-12-07T13:44:16;5.65;;;1.48;;
52043;SDS011;38053;53.100;6.078;2022-12-07T13:47:16;6.82;;;2.03;;
52043;SDS011;38053;53.100;6.078;2022-12-07T13:49:51;15.98;;;2.58;;
52043;SDS011;38053;53.100;6.078;2022-12-07T13:54:55;13.60;;;2.45;;
52043;SDS011;38053;53.100;6.078;2022-12-07T13:57:30;7.32;;;1.52;;
52043;SDS011;38053;53.100;6.078;2022-12-07T13:59:59;4.85;;;1.13;;
52043;SDS011;38053;53.100;6.078;2022-12-07T14:04:52;7.65;;;1.00;;
52043;SDS011;38053;53.100;6.078;2022-12-07T14:07:31;6.07;;;1.65;;
52043;SDS011;38053;53.100;6.078;2022-12-07T14:10:00;4.63;;;1.00;;
52043;SDS011;38053;53.100;6.078;2022-12-07T14:12:27;10.25;;;1.23;;
52043;SDS011;38053;53.100;6.078;2022-12-07T14:14:54;9.27;;;0.98;;
52043;SDS011;38053;53.100;6.078;2022-12-07T14:17:22;8.00;;;1.65;;
52043;SDS011;38053;53.100;6.078;2022-12-07T14:19:51;11.60;;;3.55;;
52043;SDS011;38053;53.100;6.078;2022-12-07T14:27:30;11.80;;;1.60;;
52043;SDS011;38053;53.100;6.078;2022-12-07T14:29:59;9.23;;;1.23;;
52043;SDS011;38053;53.100;6.078;2022-12-07T14:32:27;8.35;;;1.17;;
52043;SDS011;38053;53.100;6.078;2022-12-07T14:34:55;4.35;;;0.85;;
52043;SDS011;38053;53.100;6.078;2022-12-07T14:37:22;5.47;;;1.10;;
52043;SDS011;38053;53.100;6.078;2022-12-07T14:39:48;6.78;;;1.85;;
52043;SDS011;38053;53.100;6.078;2022-12-07T14:42:13;9.98;;;2.13;;
52043;SDS011;38053;53.100;6.078;2022-12-07T14:44:39;8.18;;;3.72;;
52043;SDS011;38053;53.100;6.078;2022-12-07T14:47:05;5.53;;;1.70;;
52043;SDS011;38053;53.100;6.078;2022-12-07T14:49:33;3.83;;;0.85;;
52043;SDS011;38053;53.100;6.078;2022-12-07T14:51:59;4.82;;;1.13;;
52043;SDS011;38053;53.100;6.078;2022-12-07T14:54:24;9.18;;;2.83;;
52043;SDS011;38053;53.100;6.078;2022-12-07T14:56:53;7.50;;;1.05;;
52043;SDS011;38053;53.100;6.078;2022-12-07T14:59:19;4.03;;;1.20;;
52043;SDS011;38053;53.100;6.078;2022-12-07T15:01:45;5.32;;;1.08;;
52043;SDS011;38053;53.100;6.078;2022-12-07T15:04:11;4.22;;;1.17;;
52043;SDS011;38053;53.100;6.078;2022-12-07T15:06:36;7.28;;;1.77;;
52043;SDS011;38053;53.100;6.078;2022-12-07T15:09:02;5.32;;;1.75;;
52043;SDS011;38053;53.100;6.078;2022-12-07T15:11:28;10.55;;;1.60;;
52043;SDS011;38053;53.100;6.078;2022-12-07T15:13:54;13.90;;;1.35;;
52043;SDS011;38053;53.100;6.078;2022-12-07T15:16:37;3.90;;;1.55;;
52043;SDS011;38053;53.100;6.078;2022-12-07T15:19:05;7.80;;;1.70;;
52043;SDS011;38053;53.100;6.078;2022-12-07T15:21:35;6.75;;;2.08;;
52043;SDS011;38053;53.100;6.078;2022-12-07T15:24:00;10.15;;;2.20;;
52043;SDS011;38053;53.100;6.078;2022-12-07T15:26:26;8.77;;;3.17;;
52043;SDS011;38053;53.100;6.078;2022-12-07T15:28:52;6.53;;;1.98;;
52043;SDS011;38053;53.100;6.078;2022-12-07T15:31:18;9.63;;;2.08;;
52043;SDS011;38053;53.100;6.078;2022-12-07T15:33:44;22.38;;;8.43;;
52043;SDS011;38053;53.100;6.078;2022-12-07T15:36:18;12.68;;;4.05;;
52043;SDS011;38053;53.100;6.078;2022-12-07T15:38:46;9.68;;;2.92;;
52043;SDS011;38053;53.100;6.078;2022-12-07T15:41:12;8.95;;;2.88;;
52043;SDS011;38053;53.100;6.078;2022-12-07T15:43:38;3.50;;;1.10;;
52043;SDS011;38053;53.100;6.078;2022-12-07T15:46:22;12.15;;;3.08;;
52043;SDS011;38053;53.100;6.078;2022-12-07T15:48:48;5.93;;;1.40;;
52043;SDS011;38053;53.100;6.078;2022-12-07T15:51:13;10.48;;;1.77;;
52043;SDS011;38053;53.100;6.078;2022-12-07T15:53:39;9.77;;;2.45;;
52043;SDS011;38053;53.100;6.078;2022-12-07T15:56:05;10.18;;;2.60;;
52043;SDS011;38053;53.100;6.078;2022-12-07T15:58:32;11.23;;;2.35;;
52043;SDS011;38053;53.100;6.078;2022-12-07T16:00:58;12.38;;;2.85;;
52043;SDS011;38053;53.100;6.078;2022-12-07T16:03:24;9.20;;;2.53;;
52043;SDS011;38053;53.100;6.078;2022-12-07T16:05:51;11.02;;;3.47;;
52043;SDS011;38053;53.100;6.078;2022-12-07T16:08:21;9.80;;;3.33;;
52043;SDS011;38053;53.100;6.078;2022-12-07T16:10:46;6.00;;;2.67;;
52043;SDS011;38053;53.100;6.078;2022-12-07T16:13:12;11.77;;;3.25;;
52043;SDS011;38053;53.100;6.078;2022-12-07T16:15:41;8.48;;;2.05;;
52043;SDS011;38053;53.100;6.078;2022-12-07T16:18:07;4.68;;;2.20;;
52043;SDS011;38053;53.100;6.078;2022-12-07T16:20:34;6.40;;;2.53;;
52043;SDS011;38053;53.100;6.078;2022-12-07T16:22:59;10.98;;;2.53;;
52043;SDS011;38053;53.100;6.078;2022-12-07T16:25:28;8.38;;;2.42;;
52043;SDS011;38053;53.100;6.078;2022-12-07T16:27:53;9.10;;;2.35;;
52043;SDS011;38053;53.100;6.078;2022-12-07T16:30:19;11.07;;;3.60;;
52043;SDS011;38053;53.100;6.078;2022-12-07T16:32:45;17.20;;;2.83;;
52043;SDS011;38053;53.100;6.078;2022-12-07T16:35:11;10.35;;;2.90;;
52043;SDS011;38053;53.100;6.078;2022-12-07T16:37:37;11.45;;;4.15;;
52043;SDS011;38053;53.100;6.078;2022-12-07T16:40:04;17.90;;;3.38;;
52043;SDS011;38053;53.100;6.078;2022-12-07T16:42:31;12.60;;;2.50;;
52043;SDS011;38053;53.100;6.078;2022-12-07T16:44:58;11.07;;;3.08;;
52043;SDS011;38053;53.100;6.078;2022-12-07T16:47:24;12.43;;;4.68;;
52043;SDS011;38053;53.100;6.078;2022-12-07T16:49:49;12.90;;;4.20;;
52043;SDS011;38053;53.100;6.078;2022-12-07T16:52:15;7.43;;;4.57;;
52043;SDS011;38053;53.100;6.078;2022-12-07T16:54:41;15.07;;;4.07;;
52043;SDS011;38053;53.100;6.078;2022-12-07T16:57:07;12.23;;;3.83;;
52043;SDS011;38053;53.100;6.078;2022-12-07T16:59:33;17.80;;;5.35;;
52043;SDS011;38053;53.100;6.078;2022-12-07T17:01:59;17.08;;;8.02;;
52043;SDS011;38053;53.100;6.078;2022-12-07T17:04:24;17.60;;;7.75;;
52043;SDS011;38053;53.100;6.078;2022-12-07T17:06:50;20.42;;;9.40;;
52043;SDS011;38053;53.100;6.078;2022-12-07T17:09:16;11.68;;;6.53;;
52043;SDS011;38053;53.100;6.078;2022-12-07T17:11:43;15.73;;;5.97;;
52043;SDS011;38053;53.100;6.078;2022-12-07T17:14:09;11.60;;;4.70;;
52043;SDS011;38053;53.100;6.078;2022-12-07T17:16:54;14.18;;;4.25;;
52043;SDS011;38053;53.100;6.078;2022-12-07T17:19:20;19.20;;;6.03;;
52043;SDS011;38053;53.100;6.078;2022-12-07T17:21:45;14.20;;;5.93;;